sensor_id;sensor_type;location;lat;lon;timestamp;P1;durP1;ratioP1;P2;durP2;ratioP2
4409;SDS011;2218;51.408;7.208;2023-04-21T00:01:39;0.90;;;0.90;;
4409;SDS011;2218;51.408;7.208;2023-04-21T00:04:06;0.70;;;0.70;;
4409;SDS011;2218;51.408;7.208;2023-04-21T00:06:33;0.80;;;0.80;;
4409;SDS011;2218;51.408;7.208;2023-04-21T00:09:02;0.73;;;0.63;;
4409;SDS011;2218;51.408;7.208;2023-04-21T00:11:29;0.73;;;0.70;;
4409;SDS011;2218;51.408;7.208;2023-04-21T00:13:56;0.80;;;0.80;;
4409;SDS011;2218;51.408;7.208;2023-04-21T00:16:23;0.70;;;0.70;;
4409;SDS011;2218;51.408;7.208;2023-04-21T00:18:50;0.80;;;0.80;;
4409;SDS011;2218;51.408;7.208;2023-04-21T00:21:17;0.80;;;0.80;;
4409;SDS011;2218;51.408;7.208;2023-04-21T00:23:44;0.90;;;0.90;;
4409;SDS011;2218;51.408;7.208;2023-04-21T00:26:15;1.00;;;1.00;;
4409;SDS011;2218;51.408;7.208;2023-04-21T00:28:43;0.80;;;0.70;;
4409;SDS011;2218;51.408;7.208;2023-04-21T00:31:10;0.80;;;0.80;;
4409;SDS011;2218;51.408;7.208;2023-04-21T00:33:37;1.00;;;1.00;;
4409;SDS011;2218;51.408;7.208;2023-04-21T00:36:04;1.00;;;1.00;;
4409;SDS011;2218;51.408;7.208;2023-04-21T00:38:32;1.00;;;0.90;;
4409;SDS011;2218;51.408;7.208;2023-04-21T00:40:59;0.93;;;0.83;;
4409;SDS011;2218;51.408;7.208;2023-04-21T00:43:27;1.10;;;1.00;;
4409;SDS011;2218;51.408;7.208;2023-04-21T00:45:54;0.80;;;0.80;;
4409;SDS011;2218;51.408;7.208;2023-04-21T00:48:21;1.03;;;1.00;;
4409;SDS011;2218;51.408;7.208;2023-04-21T00:50:48;1.07;;;1.00;;
4409;SDS011;2218;51.408;7.208;2023-04-21T00:53:15;1.57;;;0.80;;
4409;SDS011;2218;51.408;7.208;2023-04-21T00:55:44;1.03;;;0.97;;
4409;SDS011;2218;51.408;7.208;2023-04-21T00:58:12;0.90;;;0.90;;
4409;SDS011;2218;51.408;7.208;2023-04-21T01:00:40;1.10;;;0.90;;
4409;SDS011;2218;51.408;7.208;2023-04-21T01:03:08;0.80;;;0.80;;
4409;SDS011;2218;51.408;7.208;2023-04-21T01:05:35;1.00;;;0.90;;
4409;SDS011;2218;51.408;7.208;2023-04-21T01:08:02;1.00;;;0.90;;
4409;SDS011;2218;51.408;7.208;2023-04-21T01:10:32;0.70;;;0.57;;
4409;SDS011;2218;51.408;7.208;2023-04-21T01:12:58;1.00;;;0.90;;
4409;SDS011;2218;51.408;7.208;2023-04-21T01:15:25;0.90;;;0.90;;
4409;SDS011;2218;51.408;7.208;2023-04-21T01:17:58;0.73;;;0.73;;
4409;SDS011;2218;51.408;7.208;2023-04-21T01:20:25;0.80;;;0.80;;
4409;SDS011;2218;51.408;7.208;2023-04-21T01:22:55;1.03;;;1.00;;
4409;SDS011;2218;51.408;7.208;2023-04-21T01:25:23;0.90;;;0.90;;
4409;SDS011;2218;51.408;7.208;2023-04-21T01:27:52;1.00;;;0.80;;
4409;SDS011;2218;51.408;7.208;2023-04-21T01:30:20;1.10;;;1.10;;
4409;SDS011;2218;51.408;7.208;2023-04-21T01:32:47;0.80;;;0.80;;
4409;SDS011;2218;51.408;7.208;2023-04-21T01:35:14;0.90;;;0.90;;
4409;SDS011;2218;51.408;7.208;2023-04-21T01:37:41;1.07;;;1.07;;
4409;SDS011;2218;51.408;7.208;2023-04-21T01:40:09;1.07;;;1.07;;
4409;SDS011;2218;51.408;7.208;2023-04-21T01:42:38;0.90;;;0.90;;
4409;SDS011;2218;51.408;7.208;2023-04-21T01:45:08;0.90;;;0.90;;
4409;SDS011;2218;51.408;7.208;2023-04-21T01:47:36;0.80;;;0.80;;
4409;SDS011;2218;51.408;7.208;2023-04-21T01:50:04;0.80;;;0.80;;
4409;SDS011;2218;51.408;7.208;2023-04-21T01:52:33;0.93;;;0.93;;
4409;SDS011;2218;51.408;7.208;2023-04-21T01:55:00;1.00;;;1.00;;
4409;SDS011;2218;51.408;7.208;2023-04-21T01:57:29;0.80;;;0.80;;
4409;SDS011;2218;51.408;7.208;2023-04-21T01:59:56;1.00;;;1.00;;
4409;SDS011;2218;51.408;7.208;2023-04-21T02:02:23;0.97;;;0.97;;
4409;SDS011;2218;51.408;7.208;2023-04-21T02:04:50;0.90;;;0.90;;
4409;SDS011;2218;51.408;7.208;2023-04-21T02:07:17;1.20;;;1.10;;
4409;SDS011;2218;51.408;7.208;2023-04-21T02:09:44;1.10;;;1.00;;
4409;SDS011;2218;51.408;7.208;2023-04-21T02:12:13;0.87;;;0.87;;
4409;SDS011;2218;51.408;7.208;2023-04-21T02:14:42;0.90;;;0.90;;
4409;SDS011;2218;51.408;7.208;2023-04-21T02:17:11;0.80;;;0.80;;
4409;SDS011;2218;51.408;7.208;2023-04-21T02:19:38;1.07;;;0.97;;
4409;SDS011;2218;51.408;7.208;2023-04-21T02:22:05;0.90;;;0.90;;
4409;SDS011;2218;51.408;7.208;2023-04-21T02:24:34;0.80;;;0.80;;
4409;SDS011;2218;51.408;7.208;2023-04-21T02:27:01;0.87;;;0.87;;
4409;SDS011;2218;51.408;7.208;2023-04-21T02:29:28;1.00;;;0.90;;
4409;SDS011;2218;51.408;7.208;2023-04-21T02:31:56;1.30;;;1.20;;
4409;SDS011;2218;51.408;7.208;2023-04-21T02:34:24;1.20;;;1.03;;
4409;SDS011;2218;51.408;7.208;2023-04-21T02:36:50;0.97;;;0.97;;
4409;SDS011;2218;51.408;7.208;2023-04-21T02:39:17;1.07;;;1.07;;
4409;SDS011;2218;51.408;7.208;2023-04-21T02:41:45;0.90;;;0.90;;
4409;SDS011;2218;51.408;7.208;2023-04-21T02:44:11;0.70;;;0.70;;
4409;SDS011;2218;51.408;7.208;2023-04-21T02:46:38;1.10;;;1.00;;
4409;SDS011;2218;51.408;7.208;2023-04-21T02:49:07;1.10;;;1.00;;
4409;SDS011;2218;51.408;7.208;2023-04-21T02:51:34;1.00;;;1.00;;
4409;SDS011;2218;51.408;7.208;2023-04-21T02:54:01;1.10;;;1.00;;
4409;SDS011;2218;51.408;7.208;2023-04-21T02:56:28;1.07;;;0.97;;
4409;SDS011;2218;51.408;7.208;2023-04-21T02:58:55;0.90;;;0.90;;
4409;SDS011;2218;51.408;7.208;2023-04-21T03:01:22;0.77;;;0.73;;
4409;SDS011;2218;51.408;7.208;2023-04-21T03:03:49;1.23;;;1.13;;
4409;SDS011;2218;51.408;7.208;2023-04-21T03:06:17;0.90;;;0.90;;
4409;SDS011;2218;51.408;7.208;2023-04-21T03:08:44;1.00;;;1.00;;
4409;SDS011;2218;51.408;7.208;2023-04-21T03:11:11;1.00;;;1.00;;
4409;SDS011;2218;51.408;7.208;2023-04-21T03:13:38;0.80;;;0.80;;
4409;SDS011;2218;51.408;7.208;2023-04-21T03:16:05;1.17;;;1.13;;
4409;SDS011;2218;51.408;7.208;2023-04-21T03:18:33;1.00;;;1.00;;
4409;SDS011;2218;51.408;7.208;2023-04-21T03:21:00;0.90;;;0.90;;
4409;SDS011;2218;51.408;7.208;2023-04-21T03:23:28;1.00;;;1.00;;
4409;SDS011;2218;51.408;7.208;2023-04-21T03:25:55;1.20;;;1.10;;
4409;SDS011;2218;51.408;7.208;2023-04-21T03:28:22;1.10;;;1.00;;
4409;SDS011;2218;51.408;7.208;2023-04-21T03:30:50;0.97;;;0.97;;
4409;SDS011;2218;51.408;7.208;2023-04-21T03:33:17;1.00;;;1.00;;
4409;SDS011;2218;51.408;7.208;2023-04-21T03:35:44;0.90;;;0.90;;
4409;SDS011;2218;51.408;7.208;2023-04-21T03:38:11;1.30;;;1.20;;
4409;SDS011;2218;51.408;7.208;2023-04-21T03:40:39;1.30;;;1.20;;
4409;SDS011;2218;51.408;7.208;2023-04-21T03:43:06;1.03;;;1.03;;
4409;SDS011;2218;51.408;7.208;2023-04-21T03:45:33;1.20;;;1.10;;
4409;SDS011;2218;51.408;7.208;2023-04-21T03:48:01;0.80;;;0.80;;
4409;SDS011;2218;51.408;7.208;2023-04-21T03:50:28;1.00;;;1.00;;
4409;SDS011;2218;51.408;7.208;2023-04-21T03:52:56;1.10;;;1.00;;
4409;SDS011;2218;51.408;7.208;2023-04-21T03:55:23;1.30;;;1.20;;
4409;SDS011;2218;51.408;7.208;2023-04-21T03:57:51;1.40;;;1.30;;
4409;SDS011;2218;51.408;7.208;2023-04-21T04:00:18;1.00;;;1.00;;
4409;SDS011;2218;51.408;7.208;2023-04-21T04:02:45;1.23;;;1.13;;
4409;SDS011;2218;51.408;7.208;2023-04-21T04:05:12;1.00;;;1.00;;
4409;SDS011;2218;51.408;7.208;2023-04-21T04:07:39;0.80;;;0.80;;
4409;SDS011;2218;51.408;7.208;2023-04-21T04:10:06;1.37;;;1.27;;
4409;SDS011;2218;51.408;7.208;2023-04-21T04:12:33;0.90;;;0.90;;
4409;SDS011;2218;51.408;7.208;2023-04-21T04:15:01;0.90;;;0.90;;
4409;SDS011;2218;51.408;7.208;2023-04-21T04:17:29;0.90;;;0.90;;
4409;SDS011;2218;51.408;7.208;2023-04-21T04:19:56;1.00;;;1.00;;
4409;SDS011;2218;51.408;7.208;2023-04-21T04:22:23;0.90;;;0.90;;
4409;SDS011;2218;51.408;7.208;2023-04-21T04:24:50;1.00;;;0.97;;
4409;SDS011;2218;51.408;7.208;2023-04-21T04:27:17;1.17;;;1.07;;
4409;SDS011;2218;51.408;7.208;2023-04-21T04:29:44;1.30;;;1.10;;
4409;SDS011;2218;51.408;7.208;2023-04-21T04:32:14;1.20;;;1.10;;
4409;SDS011;2218;51.408;7.208;2023-04-21T04:34:41;1.10;;;1.10;;
4409;SDS011;2218;51.408;7.208;2023-04-21T04:37:08;1.10;;;1.00;;
4409;SDS011;2218;51.408;7.208;2023-04-21T04:39:37;1.20;;;1.10;;
4409;SDS011;2218;51.408;7.208;2023-04-21T04:42:05;1.20;;;1.17;;
4409;SDS011;2218;51.408;7.208;2023-04-21T04:44:33;1.23;;;1.13;;
4409;SDS011;2218;51.408;7.208;2023-04-21T04:47:00;1.30;;;1.20;;
4409;SDS011;2218;51.408;7.208;2023-04-21T04:49:29;1.07;;;1.07;;
4409;SDS011;2218;51.408;7.208;2023-04-21T04:51:56;1.00;;;1.00;;
4409;SDS011;2218;51.408;7.208;2023-04-21T04:54:23;0.93;;;0.93;;
4409;SDS011;2218;51.408;7.208;2023-04-21T04:56:53;1.23;;;1.13;;
4409;SDS011;2218;51.408;7.208;2023-04-21T04:59:19;1.30;;;1.20;;
4409;SDS011;2218;51.408;7.208;2023-04-21T05:01:46;1.20;;;1.10;;
4409;SDS011;2218;51.408;7.208;2023-04-21T05:04:13;0.90;;;0.90;;
4409;SDS011;2218;51.408;7.208;2023-04-21T05:06:42;1.40;;;1.30;;
4409;SDS011;2218;51.408;7.208;2023-04-21T05:09:09;0.80;;;0.80;;
4409;SDS011;2218;51.408;7.208;2023-04-21T05:11:36;1.17;;;1.10;;
4409;SDS011;2218;51.408;7.208;2023-04-21T05:14:03;1.13;;;1.07;;
4409;SDS011;2218;51.408;7.208;2023-04-21T05:16:30;1.40;;;1.30;;
4409;SDS011;2218;51.408;7.208;2023-04-21T05:18:59;1.10;;;1.10;;
4409;SDS011;2218;51.408;7.208;2023-04-21T05:21:27;1.20;;;1.20;;
4409;SDS011;2218;51.408;7.208;2023-04-21T05:23:57;1.30;;;1.20;;
4409;SDS011;2218;51.408;7.208;2023-04-21T05:26:25;0.90;;;0.90;;
4409;SDS011;2218;51.408;7.208;2023-04-21T05:28:55;1.00;;;1.00;;
4409;SDS011;2218;51.408;7.208;2023-04-21T05:31:24;1.13;;;1.03;;
4409;SDS011;2218;51.408;7.208;2023-04-21T05:33:51;1.00;;;1.00;;
4409;SDS011;2218;51.408;7.208;2023-04-21T05:36:18;1.03;;;1.03;;
4409;SDS011;2218;51.408;7.208;2023-04-21T05:38:45;1.20;;;1.10;;
4409;SDS011;2218;51.408;7.208;2023-04-21T05:41:13;1.30;;;1.20;;
4409;SDS011;2218;51.408;7.208;2023-04-21T05:43:41;1.23;;;1.13;;
4409;SDS011;2218;51.408;7.208;2023-04-21T05:46:08;1.30;;;1.20;;
4409;SDS011;2218;51.408;7.208;2023-04-21T05:48:35;1.07;;;1.07;;
4409;SDS011;2218;51.408;7.208;2023-04-21T05:51:07;1.40;;;1.30;;
4409;SDS011;2218;51.408;7.208;2023-04-21T05:53:35;1.13;;;1.03;;
4409;SDS011;2218;51.408;7.208;2023-04-21T05:56:02;1.00;;;1.00;;
4409;SDS011;2218;51.408;7.208;2023-04-21T05:58:32;1.47;;;1.37;;
4409;SDS011;2218;51.408;7.208;2023-04-21T06:00:59;1.30;;;1.20;;
4409;SDS011;2218;51.408;7.208;2023-04-21T06:03:29;1.00;;;1.00;;
4409;SDS011;2218;51.408;7.208;2023-04-21T06:05:56;1.10;;;1.00;;
4409;SDS011;2218;51.408;7.208;2023-04-21T06:08:25;1.40;;;1.30;;
4409;SDS011;2218;51.408;7.208;2023-04-21T06:10:52;1.20;;;1.10;;
4409;SDS011;2218;51.408;7.208;2023-04-21T06:13:19;1.10;;;1.00;;
4409;SDS011;2218;51.408;7.208;2023-04-21T06:15:47;1.10;;;1.00;;
4409;SDS011;2218;51.408;7.208;2023-04-21T06:18:14;1.17;;;1.13;;
4409;SDS011;2218;51.408;7.208;2023-04-21T06:20:41;1.17;;;1.07;;
4409;SDS011;2218;51.408;7.208;2023-04-21T06:23:14;1.00;;;1.00;;
4409;SDS011;2218;51.408;7.208;2023-04-21T06:25:41;0.90;;;0.90;;
4409;SDS011;2218;51.408;7.208;2023-04-21T06:28:08;1.27;;;1.17;;
4409;SDS011;2218;51.408;7.208;2023-04-21T06:30:35;1.30;;;1.23;;
4409;SDS011;2218;51.408;7.208;2023-04-21T06:33:03;1.40;;;1.30;;
4409;SDS011;2218;51.408;7.208;2023-04-21T06:35:31;1.13;;;1.07;;
4409;SDS011;2218;51.408;7.208;2023-04-21T06:37:58;1.00;;;1.00;;
4409;SDS011;2218;51.408;7.208;2023-04-21T06:40:25;0.90;;;0.90;;
4409;SDS011;2218;51.408;7.208;2023-04-21T06:42:52;1.10;;;1.10;;
4409;SDS011;2218;51.408;7.208;2023-04-21T06:45:20;1.20;;;1.10;;
4409;SDS011;2218;51.408;7.208;2023-04-21T06:47:47;1.03;;;1.03;;
4409;SDS011;2218;51.408;7.208;2023-04-21T06:50:15;1.27;;;1.17;;
4409;SDS011;2218;51.408;7.208;2023-04-21T06:52:44;1.23;;;1.13;;
4409;SDS011;2218;51.408;7.208;2023-04-21T06:55:11;1.80;;;1.43;;
4409;SDS011;2218;51.408;7.208;2023-04-21T06:57:38;1.50;;;1.40;;
4409;SDS011;2218;51.408;7.208;2023-04-21T07:00:05;7.40;;;1.20;;
4409;SDS011;2218;51.408;7.208;2023-04-21T07:02:34;3.43;;;1.23;;
4409;SDS011;2218;51.408;7.208;2023-04-21T07:05:01;2.10;;;1.10;;
4409;SDS011;2218;51.408;7.208;2023-04-21T07:07:31;0.97;;;0.97;;
4409;SDS011;2218;51.408;7.208;2023-04-21T07:09:59;1.27;;;1.17;;
4409;SDS011;2218;51.408;7.208;2023-04-21T07:12:27;1.50;;;1.40;;
4409;SDS011;2218;51.408;7.208;2023-04-21T07:14:55;1.13;;;1.07;;
4409;SDS011;2218;51.408;7.208;2023-04-21T07:17:23;1.33;;;1.23;;
4409;SDS011;2218;51.408;7.208;2023-04-21T07:19:51;1.13;;;1.10;;
4409;SDS011;2218;51.408;7.208;2023-04-21T07:22:18;2.10;;;0.90;;
4409;SDS011;2218;51.408;7.208;2023-04-21T07:24:48;0.90;;;0.80;;
4409;SDS011;2218;51.408;7.208;2023-04-21T07:27:15;1.20;;;1.10;;
4409;SDS011;2218;51.408;7.208;2023-04-21T07:29:43;1.20;;;1.10;;
4409;SDS011;2218;51.408;7.208;2023-04-21T07:32:10;1.13;;;1.03;;
4409;SDS011;2218;51.408;7.208;2023-04-21T07:34:37;0.87;;;0.87;;
4409;SDS011;2218;51.408;7.208;2023-04-21T07:37:04;2.17;;;1.50;;
4409;SDS011;2218;51.408;7.208;2023-04-21T07:39:31;1.33;;;1.23;;
4409;SDS011;2218;51.408;7.208;2023-04-21T07:42:00;1.40;;;1.17;;
4409;SDS011;2218;51.408;7.208;2023-04-21T07:44:32;1.33;;;1.23;;
4409;SDS011;2218;51.408;7.208;2023-04-21T07:46:59;2.23;;;1.17;;
4409;SDS011;2218;51.408;7.208;2023-04-21T07:49:26;1.10;;;1.00;;
4409;SDS011;2218;51.408;7.208;2023-04-21T07:51:53;0.93;;;0.93;;
4409;SDS011;2218;51.408;7.208;2023-04-21T07:54:20;1.10;;;1.10;;
4409;SDS011;2218;51.408;7.208;2023-04-21T07:56:47;1.00;;;1.00;;
4409;SDS011;2218;51.408;7.208;2023-04-21T07:59:15;1.20;;;1.10;;
4409;SDS011;2218;51.408;7.208;2023-04-21T08:01:42;2.00;;;1.40;;
4409;SDS011;2218;51.408;7.208;2023-04-21T08:04:09;1.07;;;1.07;;
4409;SDS011;2218;51.408;7.208;2023-04-21T08:06:36;1.13;;;1.10;;
4409;SDS011;2218;51.408;7.208;2023-04-21T08:09:03;1.40;;;1.30;;
4409;SDS011;2218;51.408;7.208;2023-04-21T08:11:30;2.30;;;1.03;;
4409;SDS011;2218;51.408;7.208;2023-04-21T08:13:57;1.37;;;1.20;;
4409;SDS011;2218;51.408;7.208;2023-04-21T08:16:25;1.40;;;1.30;;
4409;SDS011;2218;51.408;7.208;2023-04-21T08:18:52;1.30;;;1.20;;
4409;SDS011;2218;51.408;7.208;2023-04-21T08:21:19;5.70;;;1.40;;
4409;SDS011;2218;51.408;7.208;2023-04-21T08:23:46;1.23;;;1.13;;
4409;SDS011;2218;51.408;7.208;2023-04-21T08:26:13;2.10;;;1.10;;
4409;SDS011;2218;51.408;7.208;2023-04-21T08:28:39;1.40;;;1.30;;
4409;SDS011;2218;51.408;7.208;2023-04-21T08:31:06;1.23;;;1.00;;
4409;SDS011;2218;51.408;7.208;2023-04-21T08:33:35;1.20;;;1.10;;
4409;SDS011;2218;51.408;7.208;2023-04-21T08:36:02;1.30;;;1.20;;
4409;SDS011;2218;51.408;7.208;2023-04-21T08:38:29;2.50;;;1.00;;
4409;SDS011;2218;51.408;7.208;2023-04-21T08:40:57;1.27;;;1.17;;
4409;SDS011;2218;51.408;7.208;2023-04-21T08:43:24;0.80;;;0.80;;
4409;SDS011;2218;51.408;7.208;2023-04-21T08:45:53;1.33;;;1.17;;
4409;SDS011;2218;51.408;7.208;2023-04-21T08:48:21;1.20;;;1.13;;
4409;SDS011;2218;51.408;7.208;2023-04-21T08:50:51;1.00;;;0.90;;
4409;SDS011;2218;51.408;7.208;2023-04-21T08:53:18;1.10;;;1.00;;
4409;SDS011;2218;51.408;7.208;2023-04-21T08:55:49;1.17;;;1.07;;
4409;SDS011;2218;51.408;7.208;2023-04-21T08:58:19;1.10;;;1.07;;
4409;SDS011;2218;51.408;7.208;2023-04-21T09:00:47;1.10;;;1.00;;
4409;SDS011;2218;51.408;7.208;2023-04-21T09:03:17;1.20;;;1.10;;
4409;SDS011;2218;51.408;7.208;2023-04-21T09:05:57;1.53;;;1.43;;
4409;SDS011;2218;51.408;7.208;2023-04-21T09:08:25;1.10;;;1.00;;
4409;SDS011;2218;51.408;7.208;2023-04-21T09:10:55;2.20;;;1.20;;
4409;SDS011;2218;51.408;7.208;2023-04-21T09:13:29;0.80;;;0.80;;
4409;SDS011;2218;51.408;7.208;2023-04-21T09:15:58;1.93;;;1.10;;
4409;SDS011;2218;51.408;7.208;2023-04-21T09:18:28;1.17;;;1.10;;
4409;SDS011;2218;51.408;7.208;2023-04-21T09:21:05;1.40;;;1.30;;
4409;SDS011;2218;51.408;7.208;2023-04-21T09:23:42;1.23;;;1.13;;
4409;SDS011;2218;51.408;7.208;2023-04-21T09:26:12;1.10;;;1.10;;
4409;SDS011;2218;51.408;7.208;2023-04-21T09:28:41;0.90;;;0.90;;
4409;SDS011;2218;51.408;7.208;2023-04-21T09:31:12;0.93;;;0.93;;
4409;SDS011;2218;51.408;7.208;2023-04-21T09:33:45;1.30;;;1.20;;
4409;SDS011;2218;51.408;7.208;2023-04-21T09:36:19;2.60;;;1.10;;
4409;SDS011;2218;51.408;7.208;2023-04-21T09:38:49;1.63;;;1.13;;
4409;SDS011;2218;51.408;7.208;2023-04-21T09:41:22;1.20;;;1.10;;
4409;SDS011;2218;51.408;7.208;2023-04-21T09:43:49;1.50;;;1.40;;
4409;SDS011;2218;51.408;7.208;2023-04-21T09:46:18;2.80;;;1.00;;
4409;SDS011;2218;51.408;7.208;2023-04-21T09:48:46;1.17;;;1.07;;
4409;SDS011;2218;51.408;7.208;2023-04-21T09:51:13;0.90;;;0.90;;
4409;SDS011;2218;51.408;7.208;2023-04-21T09:53:44;1.23;;;1.13;;
4409;SDS011;2218;51.408;7.208;2023-04-21T09:56:15;1.23;;;1.17;;
4409;SDS011;2218;51.408;7.208;2023-04-21T09:58:51;1.10;;;1.10;;
4409;SDS011;2218;51.408;7.208;2023-04-21T10:01:23;1.30;;;0.97;;
4409;SDS011;2218;51.408;7.208;2023-04-21T10:03:52;1.30;;;1.20;;
4409;SDS011;2218;51.408;7.208;2023-04-21T10:06:21;1.37;;;1.27;;
4409;SDS011;2218;51.408;7.208;2023-04-21T10:08:50;1.00;;;1.00;;
4409;SDS011;2218;51.408;7.208;2023-04-21T10:11:22;2.20;;;1.10;;
4409;SDS011;2218;51.408;7.208;2023-04-21T10:13:50;5.83;;;1.17;;
4409;SDS011;2218;51.408;7.208;2023-04-21T10:16:17;1.30;;;1.20;;
4409;SDS011;2218;51.408;7.208;2023-04-21T10:18:46;0.90;;;0.90;;
4409;SDS011;2218;51.408;7.208;2023-04-21T10:21:16;0.90;;;0.90;;
4409;SDS011;2218;51.408;7.208;2023-04-21T10:23:46;1.50;;;1.40;;
4409;SDS011;2218;51.408;7.208;2023-04-21T10:26:18;1.50;;;1.40;;
4409;SDS011;2218;51.408;7.208;2023-04-21T10:28:48;1.13;;;1.03;;
4409;SDS011;2218;51.408;7.208;2023-04-21T10:31:20;1.40;;;1.30;;
4409;SDS011;2218;51.408;7.208;2023-04-21T10:34:11;1.60;;;1.50;;
4409;SDS011;2218;51.408;7.208;2023-04-21T10:37:07;1.30;;;1.20;;
4409;SDS011;2218;51.408;7.208;2023-04-21T10:39:50;1.37;;;1.27;;
4409;SDS011;2218;51.408;7.208;2023-04-21T10:42:22;1.10;;;1.10;;
4409;SDS011;2218;51.408;7.208;2023-04-21T10:45:10;1.17;;;1.10;;
4409;SDS011;2218;51.408;7.208;2023-04-21T10:47:39;1.50;;;1.40;;
4409;SDS011;2218;51.408;7.208;2023-04-21T10:50:21;1.00;;;1.00;;
4409;SDS011;2218;51.408;7.208;2023-04-21T10:52:51;1.37;;;1.27;;
4409;SDS011;2218;51.408;7.208;2023-04-21T10:55:21;1.43;;;1.33;;
4409;SDS011;2218;51.408;7.208;2023-04-21T10:57:54;1.20;;;1.10;;
4409;SDS011;2218;51.408;7.208;2023-04-21T11:00:23;1.40;;;1.30;;
4409;SDS011;2218;51.408;7.208;2023-04-21T11:02:54;1.20;;;1.10;;
4409;SDS011;2218;51.408;7.208;2023-04-21T11:05:30;3.17;;;1.20;;
4409;SDS011;2218;51.408;7.208;2023-04-21T11:08:06;1.23;;;1.13;;
4409;SDS011;2218;51.408;7.208;2023-04-21T11:10:42;2.40;;;1.63;;
4409;SDS011;2218;51.408;7.208;2023-04-21T11:13:23;1.07;;;1.07;;
4409;SDS011;2218;51.408;7.208;2023-04-21T11:16:00;0.90;;;0.90;;
4409;SDS011;2218;51.408;7.208;2023-04-21T11:18:33;1.40;;;1.30;;
4409;SDS011;2218;51.408;7.208;2023-04-21T11:21:06;1.10;;;1.10;;
4409;SDS011;2218;51.408;7.208;2023-04-21T11:23:46;1.20;;;1.17;;
4409;SDS011;2218;51.408;7.208;2023-04-21T11:26:23;1.10;;;1.00;;
4409;SDS011;2218;51.408;7.208;2023-04-21T11:28:59;1.30;;;1.20;;
4409;SDS011;2218;51.408;7.208;2023-04-21T11:31:28;1.23;;;1.13;;
4409;SDS011;2218;51.408;7.208;2023-04-21T11:33:56;1.20;;;1.10;;
4409;SDS011;2218;51.408;7.208;2023-04-21T11:36:24;2.50;;;1.20;;
4409;SDS011;2218;51.408;7.208;2023-04-21T11:38:51;1.30;;;1.20;;
4409;SDS011;2218;51.408;7.208;2023-04-21T11:41:21;1.40;;;1.30;;
4409;SDS011;2218;51.408;7.208;2023-04-21T11:43:49;1.87;;;1.27;;
4409;SDS011;2218;51.408;7.208;2023-04-21T11:46:22;1.20;;;1.20;;
4409;SDS011;2218;51.408;7.208;2023-04-21T11:48:57;1.30;;;1.20;;
4409;SDS011;2218;51.408;7.208;2023-04-21T11:51:25;1.20;;;1.10;;
4409;SDS011;2218;51.408;7.208;2023-04-21T11:53:58;1.10;;;1.10;;
4409;SDS011;2218;51.408;7.208;2023-04-21T11:56:25;1.70;;;1.60;;
4409;SDS011;2218;51.408;7.208;2023-04-21T11:58:52;1.53;;;1.30;;
4409;SDS011;2218;51.408;7.208;2023-04-21T12:01:21;1.17;;;1.10;;
4409;SDS011;2218;51.408;7.208;2023-04-21T12:03:51;1.37;;;1.27;;
4409;SDS011;2218;51.408;7.208;2023-04-21T12:06:19;1.40;;;1.30;;
4409;SDS011;2218;51.408;7.208;2023-04-21T12:08:48;1.17;;;1.10;;
4409;SDS011;2218;51.408;7.208;2023-04-21T12:11:21;1.10;;;1.00;;
4409;SDS011;2218;51.408;7.208;2023-04-21T12:13:49;1.50;;;1.40;;
4409;SDS011;2218;51.408;7.208;2023-04-21T12:16:16;1.03;;;1.03;;
4409;SDS011;2218;51.408;7.208;2023-04-21T12:18:45;2.80;;;1.30;;
4409;SDS011;2218;51.408;7.208;2023-04-21T12:21:14;1.33;;;1.23;;
4409;SDS011;2218;51.408;7.208;2023-04-21T12:23:41;1.40;;;1.30;;
4409;SDS011;2218;51.408;7.208;2023-04-21T12:26:09;1.83;;;1.23;;
4409;SDS011;2218;51.408;7.208;2023-04-21T12:28:36;1.40;;;1.30;;
4409;SDS011;2218;51.408;7.208;2023-04-21T12:31:04;1.17;;;1.17;;
4409;SDS011;2218;51.408;7.208;2023-04-21T12:33:31;1.70;;;1.27;;
4409;SDS011;2218;51.408;7.208;2023-04-21T12:36:00;1.40;;;1.30;;
4409;SDS011;2218;51.408;7.208;2023-04-21T12:38:27;1.17;;;1.10;;
4409;SDS011;2218;51.408;7.208;2023-04-21T12:40:54;1.23;;;1.13;;
4409;SDS011;2218;51.408;7.208;2023-04-21T12:43:21;1.23;;;1.13;;
4409;SDS011;2218;51.408;7.208;2023-04-21T12:45:48;1.03;;;1.03;;
4409;SDS011;2218;51.408;7.208;2023-04-21T12:48:16;1.67;;;1.40;;
4409;SDS011;2218;51.408;7.208;2023-04-21T12:50:44;1.30;;;1.20;;
4409;SDS011;2218;51.408;7.208;2023-04-21T12:53:13;1.30;;;1.20;;
4409;SDS011;2218;51.408;7.208;2023-04-21T12:55:40;2.03;;;1.37;;
4409;SDS011;2218;51.408;7.208;2023-04-21T12:58:07;1.93;;;1.10;;
4409;SDS011;2218;51.408;7.208;2023-04-21T13:00:36;1.30;;;1.20;;
4409;SDS011;2218;51.408;7.208;2023-04-21T13:03:04;1.30;;;1.20;;
4409;SDS011;2218;51.408;7.208;2023-04-21T13:05:31;1.37;;;1.27;;
4409;SDS011;2218;51.408;7.208;2023-04-21T13:07:58;1.50;;;1.40;;
4409;SDS011;2218;51.408;7.208;2023-04-21T13:10:27;4.40;;;1.10;;
4409;SDS011;2218;51.408;7.208;2023-04-21T13:12:54;1.37;;;1.27;;
4409;SDS011;2218;51.408;7.208;2023-04-21T13:15:21;1.10;;;1.10;;
4409;SDS011;2218;51.408;7.208;2023-04-21T13:17:48;1.20;;;1.20;;
4409;SDS011;2218;51.408;7.208;2023-04-21T13:20:15;1.50;;;1.40;;
4409;SDS011;2218;51.408;7.208;2023-04-21T13:22:43;1.07;;;1.07;;
4409;SDS011;2218;51.408;7.208;2023-04-21T13:25:10;1.30;;;1.20;;
4409;SDS011;2218;51.408;7.208;2023-04-21T13:27:38;1.43;;;1.33;;
4409;SDS011;2218;51.408;7.208;2023-04-21T13:30:06;1.33;;;1.20;;
4409;SDS011;2218;51.408;7.208;2023-04-21T13:32:36;1.00;;;1.00;;
4409;SDS011;2218;51.408;7.208;2023-04-21T13:35:04;1.20;;;1.10;;
4409;SDS011;2218;51.408;7.208;2023-04-21T13:37:34;1.20;;;1.10;;
4409;SDS011;2218;51.408;7.208;2023-04-21T13:40:02;1.60;;;1.03;;
4409;SDS011;2218;51.408;7.208;2023-04-21T13:42:32;1.00;;;1.00;;
4409;SDS011;2218;51.408;7.208;2023-04-21T13:45:01;1.30;;;1.20;;
4409;SDS011;2218;51.408;7.208;2023-04-21T13:47:28;1.30;;;1.20;;
4409;SDS011;2218;51.408;7.208;2023-04-21T13:49:56;2.70;;;1.40;;
4409;SDS011;2218;51.408;7.208;2023-04-21T13:52:24;1.63;;;1.37;;
4409;SDS011;2218;51.408;7.208;2023-04-21T13:54:51;1.50;;;1.40;;
4409;SDS011;2218;51.408;7.208;2023-04-21T13:57:19;3.73;;;1.33;;
4409;SDS011;2218;51.408;7.208;2023-04-21T13:59:46;13.73;;;1.80;;
4409;SDS011;2218;51.408;7.208;2023-04-21T14:02:14;3.13;;;1.70;;
4409;SDS011;2218;51.408;7.208;2023-04-21T14:04:42;1.67;;;1.47;;
4409;SDS011;2218;51.408;7.208;2023-04-21T14:07:09;4.13;;;1.73;;
4409;SDS011;2218;51.408;7.208;2023-04-21T14:09:38;1.77;;;1.67;;
4409;SDS011;2218;51.408;7.208;2023-04-21T14:12:05;1.60;;;1.50;;
4409;SDS011;2218;51.408;7.208;2023-04-21T14:14:32;1.77;;;1.47;;
4409;SDS011;2218;51.408;7.208;2023-04-21T14:16:59;4.20;;;1.50;;
4409;SDS011;2218;51.408;7.208;2023-04-21T14:19:27;1.57;;;1.47;;
4409;SDS011;2218;51.408;7.208;2023-04-21T14:21:56;1.63;;;1.53;;
4409;SDS011;2218;51.408;7.208;2023-04-21T14:24:23;1.70;;;1.60;;
4409;SDS011;2218;51.408;7.208;2023-04-21T14:26:52;1.37;;;1.27;;
4409;SDS011;2218;51.408;7.208;2023-04-21T14:29:20;1.80;;;1.37;;
4409;SDS011;2218;51.408;7.208;2023-04-21T14:31:47;2.30;;;1.57;;
4409;SDS011;2218;51.408;7.208;2023-04-21T14:34:15;1.87;;;1.50;;
4409;SDS011;2218;51.408;7.208;2023-04-21T14:36:43;1.50;;;1.40;;
4409;SDS011;2218;51.408;7.208;2023-04-21T14:39:13;3.17;;;1.40;;
4409;SDS011;2218;51.408;7.208;2023-04-21T14:41:40;1.60;;;1.50;;
4409;SDS011;2218;51.408;7.208;2023-04-21T14:44:07;1.80;;;1.70;;
4409;SDS011;2218;51.408;7.208;2023-04-21T14:46:34;1.70;;;1.60;;
4409;SDS011;2218;51.408;7.208;2023-04-21T14:49:02;1.57;;;1.47;;
4409;SDS011;2218;51.408;7.208;2023-04-21T14:51:30;2.43;;;1.70;;
4409;SDS011;2218;51.408;7.208;2023-04-21T14:53:58;2.30;;;1.50;;
4409;SDS011;2218;51.408;7.208;2023-04-21T14:56:25;1.80;;;1.70;;
4409;SDS011;2218;51.408;7.208;2023-04-21T14:58:52;3.00;;;1.90;;
4409;SDS011;2218;51.408;7.208;2023-04-21T15:01:19;1.80;;;1.70;;
4409;SDS011;2218;51.408;7.208;2023-04-21T15:03:46;1.73;;;1.63;;
4409;SDS011;2218;51.408;7.208;2023-04-21T15:06:13;1.50;;;1.40;;
4409;SDS011;2218;51.408;7.208;2023-04-21T15:08:40;1.83;;;1.73;;
4409;SDS011;2218;51.408;7.208;2023-04-21T15:11:08;1.60;;;1.50;;
4409;SDS011;2218;51.408;7.208;2023-04-21T15:13:35;1.50;;;1.40;;
4409;SDS011;2218;51.408;7.208;2023-04-21T15:16:02;5.27;;;1.70;;
4409;SDS011;2218;51.408;7.208;2023-04-21T15:18:30;1.63;;;1.53;;
4409;SDS011;2218;51.408;7.208;2023-04-21T15:20:57;1.63;;;1.53;;
4409;SDS011;2218;51.408;7.208;2023-04-21T15:23:24;1.50;;;1.40;;